KSQL/SQL METAR and TAF weather

Enter ICAO airport designator
Station Type Date Time Source
KSQL METAR 2021/05/12 01:47 UTC NOAA

KSQL 120147Z 31006KT 10SM SKC 24/04 A2988


Station Type Date Time Source
KSQL Decoded METAR 2021/05/12 01:47 UTC NOAA

San Carlos Airport, CA, United States (KSQL) 37-31N 122-15W
May 11, 2021 - 09:47 PM EDT / 2021.05.12 0147 UTC
Wind: from the NW (310 degrees) at 7 MPH (6 KT):0
Visibility: 10 mile(s):0
Sky conditions: clear
Temperature: 75 F (24 C)
Dew Point: 39 F (4 C)
Relative Humidity: 27%
Pressure (altimeter): 29.88 in. Hg (1011 hPa)
ob: KSQL 120147Z 31006KT 10SM SKC 24/04 A2988
cycle: 2

Station Type Date Time Source
KSQL TAF UTC NOAA

Error!

Example: see airport list